Time,TemperatureF,DewpointF,PressureIn,WindDirection,WindDirectionDegrees,WindSpeedMPH,WindSpeedGustMPH,Humidity,HourlyPrecipIn,Conditions,Clouds,dailyrainin,SoftwareType,DateUTC
2013-09-21 00:01:00,63.4,54.9,29.87,SSE,158,3.6,5.4,74,0.00,,,0.00,WUHU216HW,2013-09-21 04:01:00,
2013-09-21 00:02:00,63.4,54.9,29.87,SE,135,3.8,5.4,74,0.00,,,0.00,WUHU216HW,2013-09-21 04:02:00,
2013-09-21 00:07:00,63.4,54.9,29.87,ESE,113,4.0,4.5,74,0.00,,,0.00,WUHU216HW,2013-09-21 04:07:00,
2013-09-21 00:12:00,63.5,55.1,29.87,South,180,4.0,6.5,74,0.00,,,0.00,WUHU216HW,2013-09-21 04:12:00,
2013-09-21 00:17:00,63.7,55.3,29.87,SSE,158,6.7,7.6,74,0.00,,,0.00,WUHU216HW,2013-09-21 04:17:00,
2013-09-21 00:22:00,63.7,55.3,29.87,SSE,158,3.6,7.6,74,0.00,,,0.00,WUHU216HW,2013-09-21 04:22:00,
2013-09-21 00:27:00,63.7,55.3,29.87,SSW,203,1.8,6.9,74,0.00,,,0.00,WUHU216HW,2013-09-21 04:27:00,
2013-09-21 00:32:00,63.7,55.3,29.88,WSW,248,0.0,2.7,74,0.00,,,0.00,WUHU216HW,2013-09-21 04:32:00,
2013-09-21 00:37:00,63.7,55.3,29.88,SW,225,1.3,1.3,74,0.00,,,0.00,WUHU216HW,2013-09-21 04:37:00,
2013-09-21 00:42:00,63.7,55.3,29.88,SSE,158,4.0,4.0,74,0.00,,,0.00,WUHU216HW,2013-09-21 04:42:00,
2013-09-21 00:47:00,63.5,55.1,29.88,South,180,4.0,4.0,74,0.00,,,0.00,WUHU216HW,2013-09-21 04:47:00,
2013-09-21 00:52:00,63.5,55.4,29.88,SE,135,4.0,5.6,75,0.00,,,0.00,WUHU216HW,2013-09-21 04:52:00,
2013-09-21 00:57:00,63.4,55.3,29.88,SE,135,5.1,6.0,75,0.00,,,0.00,WUHU216HW,2013-09-21 04:57:00,
2013-09-21 01:02:00,63.2,55.1,29.88,SE,135,5.4,6.0,75,0.00,,,0.00,WUHU216HW,2013-09-21 05:02:00,
2013-09-21 01:07:00,63.0,54.9,29.88,SSE,158,5.8,6.0,75,0.00,,,0.00,WUHU216HW,2013-09-21 05:07:00,
2013-09-21 01:12:00,63.0,54.9,29.88,SE,135,5.8,6.0,75,0.00,,,0.00,WUHU216HW,2013-09-21 05:12:00,
2013-09-21 01:17:00,63.0,54.9,29.89,South,180,5.4,5.8,75,0.00,,,0.00,WUHU216HW,2013-09-21 05:17:00,
2013-09-21 01:22:00,62.8,54.7,29.89,South,180,5.4,5.8,75,0.00,,,0.00,WUHU216HW,2013-09-21 05:22:00,
2013-09-21 01:27:00,62.8,54.7,29.89,SE,135,4.9,6.5,75,0.00,,,0.00,WUHU216HW,2013-09-21 05:27:00,
2013-09-21 01:32:00,62.6,54.2,29.88,SE,135,5.4,6.5,74,0.00,,,0.00,WUHU216HW,2013-09-21 05:32:00,
2013-09-21 01:37:00,62.5,54.0,29.88,SE,135,7.2,7.2,74,0.00,,,0.00,WUHU216HW,2013-09-21 05:37:00,
2013-09-21 01:42:00,62.5,54.4,29.87,SSE,158,6.9,7.4,75,0.00,,,0.00,WUHU216HW,2013-09-21 05:42:00,
2013-09-21 01:47:00,62.5,54.0,29.88,ESE,113,9.6,9.6,74,0.00,,,0.00,WUHU216HW,2013-09-21 05:47:00,
2013-09-21 01:52:00,62.5,54.0,29.88,SSE,158,6.9,9.6,74,0.00,,,0.00,WUHU216HW,2013-09-21 05:52:00,
2013-09-21 01:57:00,62.5,54.0,29.88,ESE,113,4.9,9.2,74,0.00,,,0.00,WUHU216HW,2013-09-21 05:57:00,
2013-09-21 02:02:00,62.3,53.8,29.87,SE,135,6.3,7.6,74,0.00,,,0.00,WUHU216HW,2013-09-21 06:02:00,
2013-09-21 02:07:00,62.3,53.8,29.87,SSE,158,4.0,7.6,74,0.00,,,0.00,WUHU216HW,2013-09-21 06:07:00,
2013-09-21 02:12:00,62.3,53.8,29.87,South,180,3.6,6.0,74,0.00,,,0.00,WUHU216HW,2013-09-21 06:12:00,
2013-09-21 02:17:00,62.1,53.7,29.87,SE,135,4.5,4.7,74,0.00,,,0.00,WUHU216HW,2013-09-21 06:17:00,
2013-09-21 02:22:00,61.9,53.6,29.87,SE,135,3.8,4.5,74,0.00,,,0.00,WUHU216HW,2013-09-21 06:22:00,
2013-09-21 02:27:00,61.9,53.6,29.87,SE,135,4.9,6.0,74,0.00,,,0.00,WUHU216HW,2013-09-21 06:27:00,
2013-09-21 02:32:00,61.7,53.7,29.87,SSW,203,4.9,6.0,75,0.00,,,0.00,WUHU216HW,2013-09-21 06:32:00,
2013-09-21 02:37:00,61.9,53.9,29.88,SE,135,3.1,5.6,75,0.00,,,0.00,WUHU216HW,2013-09-21 06:37:00,
2013-09-21 02:42:00,61.7,53.7,29.88,SSW,203,3.4,5.6,75,0.00,,,0.00,WUHU216HW,2013-09-21 06:42:00,
2013-09-21 02:47:00,61.7,53.7,29.87,SE,135,4.0,5.1,75,0.00,,,0.00,WUHU216HW,2013-09-21 06:47:00,
2013-09-21 02:52:00,61.6,53.6,29.86,SE,135,5.1,6.9,75,0.00,,,0.00,WUHU216HW,2013-09-21 06:52:00,
2013-09-21 02:57:00,61.6,53.6,29.86,SE,135,5.6,6.9,75,0.00,,,0.00,WUHU216HW,2013-09-21 06:57:00,
2013-09-21 03:02:00,61.6,53.6,29.86,SSE,158,5.4,6.0,75,0.00,,,0.00,WUHU216HW,2013-09-21 07:02:00,
2013-09-21 03:07:00,61.4,53.4,29.86,SSE,158,7.6,7.6,75,0.00,,,0.00,WUHU216HW,2013-09-21 07:07:00,
2013-09-21 03:12:00,61.4,53.4,29.85,SE,135,4.7,7.6,75,0.00,,,0.00,WUHU216HW,2013-09-21 07:12:00,
2013-09-21 03:17:00,61.2,53.7,29.85,SSE,158,4.7,6.0,76,0.00,,,0.00,WUHU216HW,2013-09-21 07:17:00,
2013-09-21 03:22:00,61.2,53.7,29.85,SSE,158,4.0,6.0,76,0.00,,,0.00,WUHU216HW,2013-09-21 07:22:00,
2013-09-21 03:27:00,61.2,53.7,29.85,SSE,158,4.3,5.6,76,0.00,,,0.00,WUHU216HW,2013-09-21 07:27:00,
2013-09-21 03:32:00,61.2,53.7,29.85,SSW,203,4.7,5.6,76,0.00,,,0.00,WUHU216HW,2013-09-21 07:32:00,
2013-09-21 03:37:00,61.2,53.7,29.84,SSE,158,6.3,6.3,76,0.00,,,0.00,WUHU216HW,2013-09-21 07:37:00,
2013-09-21 03:42:00,61.0,53.5,29.84,SE,135,6.9,6.9,76,0.00,,,0.00,WUHU216HW,2013-09-21 07:42:00,
2013-09-21 03:47:00,61.0,53.5,29.84,SSE,158,6.5,7.8,76,0.00,,,0.00,WUHU216HW,2013-09-21 07:47:00,
2013-09-21 03:52:00,61.0,53.8,29.84,SSE,158,8.3,8.3,77,0.00,,,0.00,WUHU216HW,2013-09-21 07:52:00,
2013-09-21 03:57:00,60.8,53.6,29.84,SSE,158,5.8,8.3,77,0.00,,,0.00,WUHU216HW,2013-09-21 07:57:00,
2013-09-21 04:02:00,60.8,53.6,29.85,SW,225,8.5,8.5,77,0.00,,,0.00,WUHU216HW,2013-09-21 08:02:00,
2013-09-21 04:07:00,60.8,53.6,29.84,SSE,158,8.1,8.5,77,0.00,,,0.00,WUHU216HW,2013-09-21 08:07:00,
2013-09-21 04:12:00,60.8,53.6,29.84,SE,135,4.7,8.5,77,0.00,,,0.00,WUHU216HW,2013-09-21 08:12:00,
2013-09-21 04:17:00,60.8,53.6,29.84,SSE,158,6.0,7.6,77,0.00,,,0.00,WUHU216HW,2013-09-21 08:17:00,
2013-09-21 04:22:00,60.7,53.5,29.84,ESE,113,7.2,8.3,77,0.00,,,0.00,WUHU216HW,2013-09-21 08:22:00,
2013-09-21 04:27:00,60.7,53.8,29.84,SE,135,10.7,10.7,78,0.00,,,0.00,WUHU216HW,2013-09-21 08:27:00,
2013-09-21 04:32:00,60.7,53.8,29.84,SE,135,7.6,10.7,78,0.00,,,0.00,WUHU216HW,2013-09-21 08:32:00,
2013-09-21 04:37:00,60.5,53.6,29.83,SE,135,9.8,9.8,78,0.00,,,0.00,WUHU216HW,2013-09-21 08:37:00,
2013-09-21 04:42:00,60.5,53.6,29.83,SSE,158,6.3,9.8,78,0.00,,,0.00,WUHU216HW,2013-09-21 08:42:00,
2013-09-21 04:47:00,60.3,53.5,29.83,SSE,158,6.5,7.8,78,0.00,,,0.00,WUHU216HW,2013-09-21 08:47:00,
2013-09-21 04:52:00,60.1,53.3,29.84,SE,135,7.4,7.6,78,0.00,,,0.00,WUHU216HW,2013-09-21 08:52:00,
2013-09-21 04:57:00,60.1,53.6,29.84,SE,135,7.2,7.6,79,0.00,,,0.00,WUHU216HW,2013-09-21 08:57:00,
2013-09-21 05:02:00,60.1,53.6,29.84,SE,135,6.3,7.6,79,0.00,,,0.00,WUHU216HW,2013-09-21 09:02:00,
2013-09-21 05:07:00,59.9,53.5,29.84,SSE,158,6.9,7.8,79,0.00,,,0.00,WUHU216HW,2013-09-21 09:07:00,
2013-09-21 05:12:00,59.9,53.5,29.84,South,180,6.9,7.8,79,0.00,,,0.00,WUHU216HW,2013-09-21 09:12:00,
2013-09-21 05:17:00,59.8,53.3,29.83,SE,135,6.9,7.6,79,0.00,,,0.00,WUHU216HW,2013-09-21 09:17:00,
2013-09-21 05:19:00,59.8,53.3,29.83,SSE,158,5.1,5.1,79,0.00,,,0.00,WUHU216HW,2013-09-21 09:19:00,
2013-09-21 05:22:00,59.8,53.3,29.83,SSE,158,5.1,7.8,79,0.00,,,0.00,WUHU216HW,2013-09-21 09:22:00,
2013-09-21 05:27:00,59.8,53.3,29.83,SSE,158,5.1,7.8,79,0.00,,,0.00,WUHU216HW,2013-09-21 09:27:00,
2013-09-21 05:49:00,59.4,53.3,29.83,SSW,203,5.8,5.8,80,0.00,,,0.00,WUHU216HW,2013-09-21 09:49:00,
2013-09-21 05:54:00,59.4,53.3,29.83,SSE,158,6.3,6.3,80,0.00,,,0.00,WUHU216HW,2013-09-21 09:54:00,
2013-09-21 05:59:00,59.4,53.3,29.83,South,180,5.4,7.2,80,0.00,,,0.00,WUHU216HW,2013-09-21 09:59:00,
2013-09-21 06:04:00,59.2,53.1,29.83,SE,135,5.4,7.4,80,0.00,,,0.00,WUHU216HW,2013-09-21 10:04:00,
2013-09-21 06:09:00,59.2,53.1,29.83,SE,135,6.7,6.9,80,0.00,,,0.00,WUHU216HW,2013-09-21 10:09:00,
2013-09-21 06:14:00,59.0,52.9,29.82,SE,135,7.4,7.6,80,0.00,,,0.00,WUHU216HW,2013-09-21 10:14:00,
2013-09-21 06:19:00,59.0,52.9,29.82,SE,135,6.9,7.6,80,0.00,,,0.00,WUHU216HW,2013-09-21 10:19:00,
2013-09-21 06:24:00,59.0,53.3,29.83,ESE,113,5.8,7.4,81,0.00,,,0.00,WUHU216HW,2013-09-21 10:24:00,
2013-09-21 06:29:00,59.0,53.3,29.83,SE,135,7.4,7.4,81,0.00,,,0.00,WUHU216HW,2013-09-21 10:29:00,
2013-09-21 06:34:00,59.0,53.3,29.83,SSE,158,4.0,7.4,81,0.00,,,0.00,WUHU216HW,2013-09-21 10:34:00,
2013-09-21 06:39:00,59.0,53.3,29.83,SE,135,4.7,6.0,81,0.00,,,0.00,WUHU216HW,2013-09-21 10:39:00,
2013-09-21 06:44:00,58.9,53.1,29.83,SE,135,6.9,6.9,81,0.00,,,0.00,WUHU216HW,2013-09-21 10:44:00,
2013-09-21 06:49:00,58.9,53.1,29.83,SE,135,6.7,7.6,81,0.00,,,0.00,WUHU216HW,2013-09-21 10:49:00,
2013-09-21 06:54:00,58.9,53.1,29.83,SE,135,6.3,7.6,81,0.00,,,0.00,WUHU216HW,2013-09-21 10:54:00,
2013-09-21 06:59:00,58.9,53.1,29.83,SE,135,7.4,7.8,81,0.00,,,0.00,WUHU216HW,2013-09-21 10:59:00,
2013-09-21 07:04:00,58.9,53.1,29.83,SE,135,7.6,8.5,81,0.00,,,0.00,WUHU216HW,2013-09-21 11:04:00,
2013-09-21 07:09:00,58.7,52.9,29.83,SE,135,10.5,10.5,81,0.00,,,0.00,WUHU216HW,2013-09-21 11:09:00,
2013-09-21 07:14:00,58.9,53.4,29.83,SE,135,7.4,10.5,82,0.00,,,0.00,WUHU216HW,2013-09-21 11:14:00,
2013-09-21 07:19:00,58.9,53.4,29.83,SE,135,8.1,9.4,82,0.00,,,0.00,WUHU216HW,2013-09-21 11:19:00,
2013-09-21 07:24:00,58.9,53.4,29.83,SSE,158,6.9,9.4,82,0.00,,,0.00,WUHU216HW,2013-09-21 11:24:00,
2013-09-21 07:29:00,59.0,53.6,29.83,SSE,158,6.5,8.3,82,0.00,,,0.00,WUHU216HW,2013-09-21 11:29:00,
2013-09-21 07:34:00,59.0,53.6,29.83,ESE,113,4.7,9.2,82,0.00,,,0.00,WUHU216HW,2013-09-21 11:34:00,
2013-09-21 07:39:00,59.0,53.6,29.82,SE,135,5.1,9.2,82,0.00,,,0.00,WUHU216HW,2013-09-21 11:39:00,
2013-09-21 07:44:00,59.0,53.6,29.82,SSE,158,6.9,6.9,82,0.00,,,0.00,WUHU216HW,2013-09-21 11:44:00,
2013-09-21 07:49:00,59.0,53.6,29.82,ENE,68,4.3,6.9,82,0.00,,,0.00,WUHU216HW,2013-09-21 11:49:00,
2013-09-21 07:54:00,59.4,53.9,29.82,SE,135,4.7,8.1,82,0.00,,,0.00,WUHU216HW,2013-09-21 11:54:00,
2013-09-21 07:59:00,59.6,54.1,29.82,SSE,158,5.4,8.1,82,0.00,,,0.00,WUHU216HW,2013-09-21 11:59:00,
2013-09-21 08:04:00,59.8,54.3,29.82,South,180,7.4,7.6,82,0.00,,,0.00,WUHU216HW,2013-09-21 12:04:00,
2013-09-21 08:09:00,59.9,54.2,29.82,SSE,158,5.1,7.6,81,0.00,,,0.00,WUHU216HW,2013-09-21 12:09:00,
2013-09-21 08:14:00,60.3,54.6,29.81,SSE,158,5.1,5.8,81,0.00,,,0.00,WUHU216HW,2013-09-21 12:14:00,
2013-09-21 08:19:00,60.7,54.9,29.81,South,180,5.6,5.8,81,0.00,,,0.00,WUHU216HW,2013-09-21 12:19:00,
2013-09-21 08:24:00,60.8,55.1,29.81,SE,135,6.9,6.9,81,0.00,,,0.00,WUHU216HW,2013-09-21 12:24:00,
2013-09-21 08:29:00,61.4,55.5,29.81,SSE,158,3.4,7.2,81,0.00,,,0.00,WUHU216HW,2013-09-21 12:29:00,
2013-09-21 08:34:00,61.9,56.1,29.80,SSE,158,10.3,10.3,81,0.00,,,0.00,WUHU216HW,2013-09-21 12:34:00,
2013-09-21 08:39:00,62.5,56.2,29.80,SSE,158,5.8,10.3,80,0.00,,,0.00,WUHU216HW,2013-09-21 12:39:00,
2013-09-21 08:44:00,63.2,56.5,29.80,SE,135,6.5,9.4,79,0.00,,,0.00,WUHU216HW,2013-09-21 12:44:00,
2013-09-21 08:49:00,63.5,57.2,29.80,ESE,113,9.2,10.1,80,0.00,,,0.00,WUHU216HW,2013-09-21 12:49:00,
2013-09-21 08:54:00,63.7,57.1,29.80,SSE,158,8.5,10.1,79,0.00,,,0.00,WUHU216HW,2013-09-21 12:54:00,
2013-09-21 08:59:00,64.1,57.4,29.80,SSE,158,4.9,9.4,79,0.00,,,0.00,WUHU216HW,2013-09-21 12:59:00,
2013-09-21 09:04:00,64.4,57.4,29.80,SSE,158,8.7,9.2,78,0.00,,,0.00,WUHU216HW,2013-09-21 13:04:00,
2013-09-21 09:09:00,64.8,57.8,29.80,SSE,158,7.2,11.4,78,0.00,,,0.00,WUHU216HW,2013-09-21 13:09:00,
2013-09-21 09:14:00,65.0,57.6,29.80,South,180,10.3,11.4,77,0.00,,,0.00,WUHU216HW,2013-09-21 13:14:00,
2013-09-21 09:19:00,65.2,57.8,29.80,South,180,9.2,10.3,77,0.00,,,0.00,WUHU216HW,2013-09-21 13:19:00,
2013-09-21 09:24:00,65.2,57.4,29.79,South,180,8.5,13.4,76,0.00,,,0.00,WUHU216HW,2013-09-21 13:24:00,
2013-09-21 09:29:00,65.2,57.4,29.79,ESE,113,8.5,13.4,76,0.00,,,0.00,WUHU216HW,2013-09-21 13:29:00,
2013-09-21 09:34:00,65.3,57.6,29.79,SSE,158,6.7,12.1,76,0.00,,,0.00,WUHU216HW,2013-09-21 13:34:00,
2013-09-21 09:39:00,65.7,57.5,29.79,SE,135,11.2,12.1,75,0.00,,,0.00,WUHU216HW,2013-09-21 13:39:00,
2013-09-21 09:44:00,65.9,57.7,29.79,SE,135,8.7,11.2,75,0.00,,,0.00,WUHU216HW,2013-09-21 13:44:00,
2013-09-21 09:49:00,66.1,57.5,29.79,SE,135,8.5,11.2,74,0.00,,,0.00,WUHU216HW,2013-09-21 13:49:00,
2013-09-21 09:54:00,66.2,57.7,29.79,SSE,158,9.6,12.3,74,0.00,,,0.00,WUHU216HW,2013-09-21 13:54:00,
2013-09-21 09:59:00,66.6,58.1,29.79,SSE,158,10.5,12.3,74,0.00,,,0.00,WUHU216HW,2013-09-21 13:59:00,
2013-09-21 10:04:00,66.6,57.7,29.78,SE,135,8.5,10.5,73,0.00,,,0.00,WUHU216HW,2013-09-21 14:04:00,
2013-09-21 10:09:00,66.8,57.9,29.78,SSE,158,5.6,12.8,73,0.00,,,0.00,WUHU216HW,2013-09-21 14:09:00,
2013-09-21 10:14:00,67.0,57.6,29.78,South,180,6.9,12.8,72,0.00,,,0.00,WUHU216HW,2013-09-21 14:14:00,
2013-09-21 10:19:00,67.3,58.0,29.78,SSE,158,10.3,10.3,72,0.00,,,0.00,WUHU216HW,2013-09-21 14:19:00,
2013-09-21 10:24:00,67.5,58.1,29.77,SE,135,10.7,10.7,72,0.00,,,0.00,WUHU216HW,2013-09-21 14:24:00,
2013-09-21 10:29:00,67.7,58.0,29.77,SE,135,8.5,10.7,71,0.00,,,0.00,WUHU216HW,2013-09-21 14:29:00,
2013-09-21 10:34:00,68.0,58.0,29.77,SSE,158,9.8,9.8,70,0.00,,,0.00,WUHU216HW,2013-09-21 14:34:00,
2013-09-21 10:39:00,68.2,58.2,29.77,ESE,113,6.9,10.3,70,0.00,,,0.00,WUHU216HW,2013-09-21 14:39:00,
2013-09-21 10:44:00,68.4,58.3,29.77,SSE,158,6.9,12.3,70,0.00,,,0.00,WUHU216HW,2013-09-21 14:44:00,
2013-09-21 10:49:00,68.4,57.9,29.77,SSW,203,10.1,12.3,69,0.00,,,0.00,WUHU216HW,2013-09-21 14:49:00,
2013-09-21 10:54:00,68.4,57.9,29.77,SE,135,7.6,12.1,69,0.00,,,0.00,WUHU216HW,2013-09-21 14:54:00,
2013-09-21 10:59:00,68.8,57.8,29.76,SSE,158,7.6,12.8,68,0.00,,,0.00,WUHU216HW,2013-09-21 14:59:00,
2013-09-21 11:04:00,68.9,57.5,29.76,SSE,158,7.8,12.8,67,0.00,,,0.00,WUHU216HW,2013-09-21 15:04:00,
2013-09-21 11:09:00,68.8,57.3,29.76,SSE,158,11.4,12.5,67,0.00,,,0.00,WUHU216HW,2013-09-21 15:09:00,
2013-09-21 11:14:00,69.1,57.7,29.75,SSE,158,11.6,12.5,67,0.00,,,0.00,WUHU216HW,2013-09-21 15:14:00,
2013-09-21 11:19:00,69.7,57.8,29.75,SSW,203,8.9,11.6,66,0.00,,,0.00,WUHU216HW,2013-09-21 15:19:00,
2013-09-21 11:24:00,69.8,57.5,29.75,SSW,203,10.7,12.1,65,0.00,,,0.00,WUHU216HW,2013-09-21 15:24:00,
2013-09-21 11:29:00,69.8,57.5,29.75,SE,135,6.3,12.8,65,0.00,,,0.00,WUHU216HW,2013-09-21 15:29:00,
2013-09-21 11:34:00,69.8,57.5,29.74,SSW,203,10.7,12.8,65,0.00,,,0.00,WUHU216HW,2013-09-21 15:34:00,
2013-09-21 11:39:00,69.8,57.5,29.74,South,180,10.5,11.9,65,0.00,,,0.00,WUHU216HW,2013-09-21 15:39:00,
2013-09-21 11:40:00,69.8,57.5,29.74,SSE,158,6.0,6.0,65,0.00,,,0.00,WUHU216HW,2013-09-21 15:40:00,
2013-09-21 11:44:00,69.8,57.5,29.74,SSE,158,6.0,11.9,65,0.00,,,0.00,WUHU216HW,2013-09-21 15:44:00,
2013-09-21 11:49:00,69.8,57.5,29.74,SSE,158,6.0,8.1,65,0.00,,,0.00,WUHU216HW,2013-09-21 15:49:00,
2013-09-21 12:00:00,70.9,58.2,29.73,SSE,158,7.4,7.4,64,0.00,,,0.00,WUHU216HW,2013-09-21 16:00:00,
2013-09-21 12:05:00,70.9,57.7,29.73,SSW,203,10.5,10.5,63,0.00,,,0.00,WUHU216HW,2013-09-21 16:05:00,
2013-09-21 12:10:00,71.3,58.1,29.72,SSE,158,10.7,12.8,63,0.00,,,0.00,WUHU216HW,2013-09-21 16:10:00,
2013-09-21 12:15:00,71.5,58.6,29.72,SSE,158,9.4,12.8,64,0.00,,,0.00,WUHU216HW,2013-09-21 16:15:00,
2013-09-21 12:20:00,71.6,58.3,29.72,SE,135,10.1,11.9,63,0.00,,,0.00,WUHU216HW,2013-09-21 16:20:00,
2013-09-21 12:25:00,72.0,58.2,29.72,SSE,158,9.6,14.3,62,0.00,,,0.00,WUHU216HW,2013-09-21 16:25:00,
2013-09-21 12:30:00,72.4,58.1,29.71,SSE,158,10.1,14.3,61,0.00,,,0.00,WUHU216HW,2013-09-21 16:30:00,
2013-09-21 12:35:00,72.4,58.1,29.71,SE,135,10.7,12.3,61,0.00,,,0.00,WUHU216HW,2013-09-21 16:35:00,
2013-09-21 12:40:00,72.7,58.1,29.70,SE,135,9.2,15.7,60,0.00,,,0.00,WUHU216HW,2013-09-21 16:40:00,
2013-09-21 12:45:00,72.9,57.7,29.70,SSE,158,12.1,15.7,59,0.00,,,0.00,WUHU216HW,2013-09-21 16:45:00,
2013-09-21 12:50:00,73.1,57.9,29.71,SSE,158,13.0,14.5,59,0.00,,,0.00,WUHU216HW,2013-09-21 16:50:00,
2013-09-21 12:55:00,73.4,58.1,29.71,SE,135,9.8,14.5,59,0.00,,,0.00,WUHU216HW,2013-09-21 16:55:00,
2013-09-21 13:00:00,73.3,57.5,29.71,SE,135,14.1,16.6,58,0.00,,,0.00,WUHU216HW,2013-09-21 17:00:00,
2013-09-21 13:05:00,73.4,57.7,29.70,SSE,158,11.6,16.6,58,0.00,,,0.00,WUHU216HW,2013-09-21 17:05:00,
2013-09-21 13:10:00,73.4,57.2,29.69,SSE,158,12.1,15.9,57,0.00,,,0.00,WUHU216HW,2013-09-21 17:10:00,
2013-09-21 13:15:00,73.4,57.2,29.69,SE,135,14.3,14.3,57,0.00,,,0.00,WUHU216HW,2013-09-21 17:15:00,
2013-09-21 13:20:00,73.8,57.5,29.69,SSE,158,10.5,14.3,57,0.00,,,0.00,WUHU216HW,2013-09-21 17:20:00,
2013-09-21 13:25:00,74.0,57.7,29.68,SSW,203,12.8,13.9,57,0.00,,,0.00,WUHU216HW,2013-09-21 17:25:00,
2013-09-21 13:30:00,74.2,57.4,29.68,South,180,12.8,12.8,56,0.00,,,0.00,WUHU216HW,2013-09-21 17:30:00,
2013-09-21 13:35:00,74.3,57.1,29.68,WSW,248,15.7,16.3,55,0.00,,,0.00,WUHU216HW,2013-09-21 17:35:00,
2013-09-21 13:40:00,74.5,55.7,29.68,SSW,203,14.1,16.3,52,0.00,,,0.00,WUHU216HW,2013-09-21 17:40:00,
2013-09-21 13:45:00,74.7,54.9,29.68,SSW,203,13.4,16.1,50,0.00,,,0.00,WUHU216HW,2013-09-21 17:45:00,
2013-09-21 13:50:00,74.7,54.9,29.67,SSW,203,8.3,16.1,50,0.00,,,0.00,WUHU216HW,2013-09-21 17:50:00,
2013-09-21 13:55:00,74.9,54.5,29.67,SE,135,15.7,15.7,49,0.00,,,0.00,WUHU216HW,2013-09-21 17:55:00,
2013-09-21 14:00:00,75.1,54.6,29.67,South,180,10.5,15.7,49,0.00,,,0.00,WUHU216HW,2013-09-21 18:00:00,
2013-09-21 14:05:00,75.2,54.2,29.67,SSE,158,12.8,12.8,48,0.00,,,0.00,WUHU216HW,2013-09-21 18:05:00,
2013-09-21 14:10:00,75.6,54.5,29.66,SSE,158,7.8,12.8,48,0.00,,,0.00,WUHU216HW,2013-09-21 18:10:00,
2013-09-21 14:15:00,75.8,54.1,29.67,SSW,203,12.8,14.1,47,0.00,,,0.00,WUHU216HW,2013-09-21 18:15:00,
2013-09-21 14:20:00,76.0,53.6,29.66,SSW,203,11.4,15.0,46,0.00,,,0.00,WUHU216HW,2013-09-21 18:20:00,
2013-09-21 14:25:00,76.0,53.6,29.66,SE,135,7.6,15.0,46,0.00,,,0.00,WUHU216HW,2013-09-21 18:25:00,
2013-09-21 14:30:00,76.1,53.2,29.65,SSE,158,6.0,13.4,45,0.00,,,0.00,WUHU216HW,2013-09-21 18:30:00,
2013-09-21 14:35:00,76.3,53.4,29.66,SE,135,12.5,12.5,45,0.00,,,0.00,WUHU216HW,2013-09-21 18:35:00,
2013-09-21 14:40:00,76.1,53.2,29.65,SE,135,4.0,12.5,45,0.00,,,0.00,WUHU216HW,2013-09-21 18:40:00,
2013-09-21 14:45:00,76.3,54.0,29.65,SW,225,9.2,11.4,46,0.00,,,0.00,WUHU216HW,2013-09-21 18:45:00,
2013-09-21 14:50:00,76.1,53.8,29.65,WSW,248,6.7,14.8,46,0.00,,,0.00,WUHU216HW,2013-09-21 18:50:00,
2013-09-21 14:55:00,76.3,54.0,29.65,SSW,203,6.9,14.8,46,0.00,,,0.00,WUHU216HW,2013-09-21 18:55:00,
2013-09-21 15:00:00,76.5,54.7,29.64,SSE,158,11.2,11.2,47,0.00,,,0.00,WUHU216HW,2013-09-21 19:00:00,
2013-09-21 15:05:00,76.7,55.5,29.64,SW,225,6.9,13.2,48,0.00,,,0.00,WUHU216HW,2013-09-21 19:05:00,
2013-09-21 15:10:00,76.7,55.5,29.64,SE,135,6.9,13.2,48,0.00,,,0.00,WUHU216HW,2013-09-21 19:10:00,
2013-09-21 15:15:00,76.5,55.4,29.64,SE,135,8.5,11.9,48,0.00,,,0.00,WUHU216HW,2013-09-21 19:15:00,
2013-09-21 15:16:00,76.3,55.2,29.64,SSE,158,7.6,7.6,48,0.00,,,0.00,WUHU216HW,2013-09-21 19:16:00,
2013-09-21 15:20:00,76.3,55.2,29.64,SSE,158,7.6,11.4,48,0.00,,,0.00,WUHU216HW,2013-09-21 19:20:00,
2013-09-21 15:25:00,76.3,55.2,29.64,SSE,158,7.6,7.6,48,0.00,,,0.00,WUHU216HW,2013-09-21 19:25:00,
2013-09-21 15:46:00,76.1,57.2,29.63,SE,135,8.5,8.5,52,0.00,,,0.00,WUHU216HW,2013-09-21 19:46:00,
2013-09-21 15:51:00,76.0,57.1,29.63,SSE,158,10.3,11.4,52,0.00,,,0.00,WUHU216HW,2013-09-21 19:51:00,
2013-09-21 15:56:00,75.6,57.2,29.62,SSE,158,15.0,15.0,53,0.00,,,0.00,WUHU216HW,2013-09-21 19:56:00,
2013-09-21 16:01:00,75.4,57.2,29.62,SSW,203,8.1,15.0,53,0.00,,,0.00,WUHU216HW,2013-09-21 20:01:00,
2013-09-21 16:06:00,75.2,57.0,29.63,SSW,203,10.1,14.3,53,0.00,,,0.00,WUHU216HW,2013-09-21 20:06:00,
2013-09-21 16:11:00,75.1,57.2,29.62,SSE,158,13.2,21.3,54,0.00,,,0.00,WUHU216HW,2013-09-21 20:11:00,
2013-09-21 16:16:00,74.9,57.1,29.62,SE,135,9.6,21.3,54,0.00,,,0.00,WUHU216HW,2013-09-21 20:16:00,
2013-09-21 16:21:00,74.5,57.2,29.62,SSE,158,18.8,18.8,55,0.00,,,0.00,WUHU216HW,2013-09-21 20:21:00,
2013-09-21 16:26:00,74.3,57.1,29.62,South,180,12.1,18.8,55,0.00,,,0.00,WUHU216HW,2013-09-21 20:26:00,
2013-09-21 16:31:00,74.2,57.4,29.62,SSE,158,12.3,14.3,56,0.00,,,0.00,WUHU216HW,2013-09-21 20:31:00,
2013-09-21 16:36:00,74.2,57.4,29.62,SE,135,17.0,17.0,56,0.00,,,0.00,WUHU216HW,2013-09-21 20:36:00,
2013-09-21 17:00:00,73.8,58.1,29.61,SSE,158,12.8,12.8,58,0.00,,,0.00,WUHU216HW,2013-09-21 21:00:00,
2013-09-21 17:05:00,73.6,57.9,29.61,SSW,203,9.6,13.9,58,0.00,,,0.00,WUHU216HW,2013-09-21 21:05:00,
2013-09-21 17:10:00,73.6,58.3,29.60,SE,135,6.7,13.9,59,0.00,,,0.00,WUHU216HW,2013-09-21 21:10:00,
2013-09-21 17:15:00,73.4,58.1,29.60,SSE,158,11.2,12.1,59,0.00,,,0.00,WUHU216HW,2013-09-21 21:15:00,
2013-09-21 17:20:00,73.4,58.7,29.60,SSE,158,8.9,12.1,60,0.00,,,0.00,WUHU216HW,2013-09-21 21:20:00,
2013-09-21 17:25:00,73.3,58.5,29.59,SSW,203,9.6,14.8,60,0.00,,,0.00,WUHU216HW,2013-09-21 21:25:00,
2013-09-21 17:30:00,73.1,58.8,29.59,South,180,8.9,14.8,61,0.00,,,0.00,WUHU216HW,2013-09-21 21:30:00,
2013-09-21 17:35:00,73.1,58.8,29.59,South,180,9.2,10.7,61,0.00,,,0.00,WUHU216HW,2013-09-21 21:35:00,
2013-09-21 17:40:00,73.1,59.2,29.59,SSE,158,11.9,11.9,62,0.00,,,0.00,WUHU216HW,2013-09-21 21:40:00,
2013-09-21 17:45:00,72.9,59.0,29.59,SE,135,8.5,11.9,62,0.00,,,0.00,WUHU216HW,2013-09-21 21:45:00,
2013-09-21 17:50:00,72.7,59.4,29.59,South,180,11.6,11.6,63,0.00,,,0.00,WUHU216HW,2013-09-21 21:50:00,
2013-09-21 17:55:00,72.5,59.2,29.59,SSW,203,6.3,11.6,63,0.00,,,0.00,WUHU216HW,2013-09-21 21:55:00,
2013-09-21 18:00:00,72.4,59.5,29.59,SSE,158,6.9,10.1,64,0.00,,,0.00,WUHU216HW,2013-09-21 22:00:00,
2013-09-21 18:05:00,72.4,59.5,29.59,South,180,6.9,8.1,64,0.00,,,0.00,WUHU216HW,2013-09-21 22:05:00,
2013-09-21 18:10:00,72.2,59.3,29.59,SSE,158,6.7,10.3,64,0.00,,,0.00,WUHU216HW,2013-09-21 22:10:00,
2013-09-21 18:15:00,72.0,59.6,29.59,South,180,7.6,10.3,65,0.00,,,0.00,WUHU216HW,2013-09-21 22:15:00,
2013-09-21 18:20:00,71.8,59.4,29.58,SE,135,6.9,7.6,65,0.00,,,0.00,WUHU216HW,2013-09-21 22:20:00,
2013-09-21 18:25:00,71.6,59.7,29.59,SSW,203,4.9,11.4,66,0.00,,,0.00,WUHU216HW,2013-09-21 22:25:00,
2013-09-21 18:30:00,71.5,59.5,29.59,South,180,5.8,11.4,66,0.00,,,0.00,WUHU216HW,2013-09-21 22:30:00,
2013-09-21 18:35:00,71.3,59.3,29.59,SSE,158,6.7,7.2,66,0.00,,,0.00,WUHU216HW,2013-09-21 22:35:00,
2013-09-21 18:40:00,71.3,58.9,29.59,SE,135,5.6,7.4,65,0.00,,,0.00,WUHU216HW,2013-09-21 22:40:00,
2013-09-21 18:45:00,71.1,58.7,29.59,South,180,4.7,7.4,65,0.00,,,0.00,WUHU216HW,2013-09-21 22:45:00,
2013-09-21 18:50:00,71.1,58.7,29.59,SSE,158,4.3,5.4,65,0.00,,,0.00,WUHU216HW,2013-09-21 22:50:00,
2013-09-21 18:55:00,70.9,59.4,29.59,SSE,158,3.6,6.3,67,0.00,,,0.00,WUHU216HW,2013-09-21 22:55:00,
2013-09-21 19:00:00,70.7,59.2,29.59,SSE,158,5.4,7.2,67,0.00,,,0.00,WUHU216HW,2013-09-21 23:00:00,
2013-09-21 19:05:00,70.6,59.1,29.59,East,90,4.3,7.2,67,0.00,,,0.00,WUHU216HW,2013-09-21 23:05:00,
2013-09-21 19:10:00,70.6,59.5,29.59,SSE,158,6.5,6.5,68,0.00,,,0.00,WUHU216HW,2013-09-21 23:10:00,
2013-09-21 19:15:00,70.4,59.3,29.59,SE,135,6.9,8.5,68,0.00,,,0.00,WUHU216HW,2013-09-21 23:15:00,
2013-09-21 19:20:00,70.4,59.3,29.59,SE,135,4.3,8.5,68,0.00,,,0.00,WUHU216HW,2013-09-21 23:20:00,
2013-09-21 19:25:00,70.4,59.3,29.59,SE,135,4.3,7.6,68,0.00,,,0.00,WUHU216HW,2013-09-21 23:25:00,
2013-09-21 19:30:00,70.4,59.3,29.59,South,180,4.3,7.6,68,0.00,,,0.00,WUHU216HW,2013-09-21 23:30:00,
2013-09-21 19:35:00,70.2,59.5,29.59,SSE,158,4.7,7.6,69,0.00,,,0.00,WUHU216HW,2013-09-21 23:35:00,
2013-09-21 19:40:00,70.2,59.5,29.59,SE,135,4.7,6.3,69,0.00,,,0.00,WUHU216HW,2013-09-21 23:40:00,
2013-09-21 19:45:00,70.2,59.5,29.59,ESE,113,6.0,6.0,69,0.00,,,0.00,WUHU216HW,2013-09-21 23:45:00,
2013-09-21 19:50:00,70.0,59.3,29.59,SE,135,4.7,6.0,69,0.00,,,0.00,WUHU216HW,2013-09-21 23:50:00,
2013-09-21 19:55:00,70.0,59.8,29.59,SSE,158,4.0,5.8,70,0.00,,,0.00,WUHU216HW,2013-09-21 23:55:00,
2013-09-21 20:00:00,69.8,59.6,29.59,SSE,158,4.7,5.6,70,0.00,,,0.00,WUHU216HW,2013-09-22 00:00:00,
2013-09-21 20:05:00,69.8,59.6,29.59,SE,135,4.5,6.0,70,0.00,,,0.00,WUHU216HW,2013-09-22 00:05:00,
2013-09-21 20:10:00,69.8,59.6,29.59,SE,135,5.6,6.0,70,0.00,,,0.00,WUHU216HW,2013-09-22 00:10:00,
2013-09-21 20:15:00,69.7,59.4,29.59,ESE,113,3.4,5.6,70,0.00,,,0.00,WUHU216HW,2013-09-22 00:15:00,
2013-09-21 20:17:00,69.7,59.4,29.58,SE,135,4.7,4.7,70,0.00,,,0.00,WUHU216HW,2013-09-22 00:17:00,
2013-09-21 20:20:00,69.7,59.4,29.58,SE,135,4.7,4.7,70,0.00,,,0.00,WUHU216HW,2013-09-22 00:20:00,
2013-09-21 20:25:00,69.7,59.4,29.58,SE,135,4.7,4.7,70,0.00,,,0.00,WUHU216HW,2013-09-22 00:25:00,
2013-09-21 20:47:00,69.7,59.8,29.58,SSE,158,4.0,4.0,71,0.00,,,0.00,WUHU216HW,2013-09-22 00:47:00,
2013-09-21 20:52:00,69.7,60.2,29.58,SSW,203,5.1,6.0,72,0.00,,,0.00,WUHU216HW,2013-09-22 00:52:00,
2013-09-21 20:57:00,69.5,60.0,29.58,SSE,158,7.2,7.2,72,0.01,,,0.00,WUHU216HW,2013-09-22 00:57:00,
2013-09-21 21:02:00,69.1,60.5,29.58,SW,225,7.2,7.2,74,0.01,,,0.01,WUHU216HW,2013-09-22 01:02:00,
2013-09-21 21:07:00,68.8,60.1,29.58,SSE,158,3.8,7.2,74,0.01,,,0.01,WUHU216HW,2013-09-22 01:07:00,
2013-09-21 21:12:00,68.2,60.4,29.58,SSW,203,3.4,5.8,76,0.01,,,0.01,WUHU216HW,2013-09-22 01:12:00,
2013-09-21 21:17:00,67.9,60.4,29.59,SSE,158,3.6,5.8,77,0.01,,,0.01,WUHU216HW,2013-09-22 01:17:00,
2013-09-21 21:22:00,67.5,60.5,29.59,SSW,203,2.5,5.6,78,0.03,,,0.03,WUHU216HW,2013-09-22 01:22:00,
2013-09-21 21:27:00,67.3,60.3,29.59,SE,135,3.4,4.9,78,0.05,,,0.05,WUHU216HW,2013-09-22 01:27:00,
2013-09-21 21:32:00,67.0,60.3,29.58,SSE,158,3.1,6.0,79,0.05,,,0.05,WUHU216HW,2013-09-22 01:32:00,
2013-09-21 21:37:00,67.0,60.3,29.58,SSW,203,3.8,6.0,79,0.05,,,0.05,WUHU216HW,2013-09-22 01:37:00,
2013-09-21 21:42:00,66.8,60.5,29.58,SE,135,2.5,3.8,80,0.05,,,0.05,WUHU216HW,2013-09-22 01:42:00,
2013-09-21 21:47:00,66.6,60.3,29.58,SW,225,3.1,4.5,80,0.05,,,0.05,WUHU216HW,2013-09-22 01:47:00,
2013-09-21 21:52:00,66.6,60.3,29.58,SSE,158,2.7,4.5,80,0.05,,,0.05,WUHU216HW,2013-09-22 01:52:00,
2013-09-21 21:57:00,66.4,60.5,29.58,South,180,3.6,5.6,81,0.04,,,0.05,WUHU216HW,2013-09-22 01:57:00,
2013-09-21 22:02:00,66.2,60.6,29.58,SSE,158,5.1,5.6,82,0.04,,,0.05,WUHU216HW,2013-09-22 02:02:00,
2013-09-21 22:07:00,66.1,60.4,29.58,SE,135,4.9,7.6,82,0.04,,,0.05,WUHU216HW,2013-09-22 02:07:00,
2013-09-21 22:12:00,66.1,60.4,29.58,East,90,3.4,7.6,82,0.04,,,0.05,WUHU216HW,2013-09-22 02:12:00,
2013-09-21 22:17:00,65.9,60.6,29.57,SSE,158,6.3,7.8,83,0.02,,,0.05,WUHU216HW,2013-09-22 02:17:00,
2013-09-21 22:22:00,65.9,60.2,29.57,SSE,158,6.5,7.8,82,0.00,,,0.05,WUHU216HW,2013-09-22 02:22:00,
2013-09-21 22:27:00,65.7,60.4,29.56,South,180,6.0,6.7,83,0.00,,,0.05,WUHU216HW,2013-09-22 02:27:00,
2013-09-21 22:32:00,65.7,60.0,29.57,SSW,203,4.9,6.7,82,0.00,,,0.05,WUHU216HW,2013-09-22 02:32:00,
2013-09-21 22:37:00,65.5,59.9,29.56,South,180,3.8,6.3,82,0.00,,,0.05,WUHU216HW,2013-09-22 02:37:00,
2013-09-21 22:42:00,65.5,59.9,29.57,SSW,203,3.1,6.3,82,0.00,,,0.05,WUHU216HW,2013-09-22 02:42:00,
2013-09-21 22:47:00,65.3,60.0,29.57,SW,225,0.4,6.3,83,0.00,,,0.05,WUHU216HW,2013-09-22 02:47:00,
2013-09-21 22:52:00,65.2,59.9,29.57,NW,315,1.1,1.8,83,0.01,,,0.06,WUHU216HW,2013-09-22 02:52:00,
2013-09-21 22:57:00,65.2,59.9,29.57,West,270,1.3,1.6,83,0.03,,,0.07,WUHU216HW,2013-09-22 02:57:00,
2013-09-21 23:02:00,65.2,59.9,29.57,WSW,248,1.1,1.6,83,0.06,,,0.11,WUHU216HW,2013-09-22 03:02:00,
2013-09-21 23:07:00,65.0,59.7,29.57,SSE,158,3.4,3.4,83,0.10,,,0.15,WUHU216HW,2013-09-22 03:07:00,
2013-09-21 23:12:00,65.0,59.3,29.56,SSE,158,6.3,6.3,82,0.12,,,0.17,WUHU216HW,2013-09-22 03:12:00,
2013-09-21 23:17:00,65.0,59.3,29.56,South,180,4.5,6.3,82,0.13,,,0.17,WUHU216HW,2013-09-22 03:17:00,
2013-09-21 23:22:00,64.8,59.2,29.56,SSE,158,5.4,6.0,82,0.14,,,0.19,WUHU216HW,2013-09-22 03:22:00,
2013-09-21 23:27:00,64.8,59.2,29.56,SE,135,2.2,6.0,82,0.16,,,0.21,WUHU216HW,2013-09-22 03:27:00,
2013-09-21 23:32:00,64.8,59.2,29.56,South,180,3.4,5.8,82,0.16,,,0.21,WUHU216HW,2013-09-22 03:32:00,
2013-09-21 23:37:00,64.8,59.2,29.56,SE,135,3.4,4.7,82,0.16,,,0.21,WUHU216HW,2013-09-22 03:37:00,
2013-09-21 23:42:00,64.8,59.2,29.56,SE,135,3.4,4.3,82,0.17,,,0.22,WUHU216HW,2013-09-22 03:42:00,
2013-09-21 23:47:00,64.6,59.1,29.55,South,180,3.6,5.1,82,0.18,,,0.23,WUHU216HW,2013-09-22 03:47:00,
2013-09-21 23:52:00,64.6,59.1,29.56,SSE,158,3.6,5.1,82,0.17,,,0.23,WUHU216HW,2013-09-22 03:52:00,
2013-09-21 23:57:00,64.4,58.9,29.56,South,180,5.1,5.1,82,0.14,,,0.23,WUHU216HW,2013-09-22 03:57:00,